sensor_id;sensor_type;location;lat;lon;timestamp;P1;durP1;ratioP1;P2;durP2;ratioP2
4206;SDS011;2117;47.972;7.830;2023-05-07T00:00:26;4.30;;;3.20;;
4206;SDS011;2117;47.972;7.830;2023-05-07T00:02:53;8.50;;;3.40;;
4206;SDS011;2117;47.972;7.830;2023-05-07T00:05:18;4.27;;;3.07;;
4206;SDS011;2117;47.972;7.830;2023-05-07T00:07:44;5.57;;;3.50;;
4206;SDS011;2117;47.972;7.830;2023-05-07T00:10:10;5.43;;;2.80;;
4206;SDS011;2117;47.972;7.830;2023-05-07T00:12:37;8.37;;;3.03;;
4206;SDS011;2117;47.972;7.830;2023-05-07T00:15:03;4.87;;;2.73;;
4206;SDS011;2117;47.972;7.830;2023-05-07T00:17:29;10.27;;;3.10;;
4206;SDS011;2117;47.972;7.830;2023-05-07T00:19:55;5.93;;;3.40;;
4206;SDS011;2117;47.972;7.830;2023-05-07T00:22:21;12.60;;;3.23;;
4206;SDS011;2117;47.972;7.830;2023-05-07T00:24:46;3.17;;;2.87;;
4206;SDS011;2117;47.972;7.830;2023-05-07T00:27:12;3.53;;;3.17;;
4206;SDS011;2117;47.972;7.830;2023-05-07T00:29:37;6.23;;;2.80;;
4206;SDS011;2117;47.972;7.830;2023-05-07T00:32:03;2.97;;;2.63;;
4206;SDS011;2117;47.972;7.830;2023-05-07T00:34:29;4.93;;;2.97;;
4206;SDS011;2117;47.972;7.830;2023-05-07T00:36:55;4.70;;;2.87;;
4206;SDS011;2117;47.972;7.830;2023-05-07T00:39:20;5.70;;;3.60;;
4206;SDS011;2117;47.972;7.830;2023-05-07T00:41:46;4.90;;;2.97;;
4206;SDS011;2117;47.972;7.830;2023-05-07T00:44:12;12.73;;;3.70;;
4206;SDS011;2117;47.972;7.830;2023-05-07T00:46:38;4.20;;;2.73;;
4206;SDS011;2117;47.972;7.830;2023-05-07T00:49:03;9.33;;;3.10;;
4206;SDS011;2117;47.972;7.830;2023-05-07T00:51:30;4.50;;;2.83;;
4206;SDS011;2117;47.972;7.830;2023-05-07T00:53:56;7.33;;;3.33;;
4206;SDS011;2117;47.972;7.830;2023-05-07T00:56:21;6.47;;;3.27;;
4206;SDS011;2117;47.972;7.830;2023-05-07T00:58:48;2.80;;;2.50;;
4206;SDS011;2117;47.972;7.830;2023-05-07T01:01:15;5.40;;;2.10;;
4206;SDS011;2117;47.972;7.830;2023-05-07T01:03:41;5.80;;;2.50;;
4206;SDS011;2117;47.972;7.830;2023-05-07T01:06:07;4.70;;;3.17;;
4206;SDS011;2117;47.972;7.830;2023-05-07T01:08:35;4.80;;;2.50;;
4206;SDS011;2117;47.972;7.830;2023-05-07T01:11:01;7.97;;;3.20;;
4206;SDS011;2117;47.972;7.830;2023-05-07T01:13:28;3.30;;;2.80;;
4206;SDS011;2117;47.972;7.830;2023-05-07T01:15:55;3.43;;;2.90;;
4206;SDS011;2117;47.972;7.830;2023-05-07T01:18:20;6.97;;;2.33;;
4206;SDS011;2117;47.972;7.830;2023-05-07T01:20:46;3.70;;;3.10;;
4206;SDS011;2117;47.972;7.830;2023-05-07T01:23:12;11.43;;;3.00;;
4206;SDS011;2117;47.972;7.830;2023-05-07T01:25:38;3.23;;;2.80;;
4206;SDS011;2117;47.972;7.830;2023-05-07T01:28:03;6.53;;;3.20;;
4206;SDS011;2117;47.972;7.830;2023-05-07T01:30:30;3.70;;;2.60;;
4206;SDS011;2117;47.972;7.830;2023-05-07T01:33:08;3.67;;;2.60;;
4206;SDS011;2117;47.972;7.830;2023-05-07T01:35:37;7.03;;;3.20;;
4206;SDS011;2117;47.972;7.830;2023-05-07T01:38:05;9.23;;;2.67;;
4206;SDS011;2117;47.972;7.830;2023-05-07T01:40:33;3.77;;;3.47;;
4206;SDS011;2117;47.972;7.830;2023-05-07T01:42:59;3.63;;;3.03;;
4206;SDS011;2117;47.972;7.830;2023-05-07T01:45:28;4.33;;;2.77;;
4206;SDS011;2117;47.972;7.830;2023-05-07T01:47:55;4.80;;;2.90;;
4206;SDS011;2117;47.972;7.830;2023-05-07T01:50:22;6.63;;;2.87;;
4206;SDS011;2117;47.972;7.830;2023-05-07T01:52:49;5.47;;;2.90;;
4206;SDS011;2117;47.972;7.830;2023-05-07T01:55:15;3.70;;;2.87;;
4206;SDS011;2117;47.972;7.830;2023-05-07T01:57:41;3.90;;;3.20;;
4206;SDS011;2117;47.972;7.830;2023-05-07T02:00:07;3.77;;;2.70;;
4206;SDS011;2117;47.972;7.830;2023-05-07T02:02:33;7.87;;;3.30;;
4206;SDS011;2117;47.972;7.830;2023-05-07T02:05:00;3.97;;;3.50;;
4206;SDS011;2117;47.972;7.830;2023-05-07T02:07:26;4.07;;;3.10;;
4206;SDS011;2117;47.972;7.830;2023-05-07T02:09:52;5.03;;;3.13;;
4206;SDS011;2117;47.972;7.830;2023-05-07T02:12:18;4.83;;;3.37;;
4206;SDS011;2117;47.972;7.830;2023-05-07T02:14:44;11.07;;;3.17;;
4206;SDS011;2117;47.972;7.830;2023-05-07T02:17:09;4.03;;;3.10;;
4206;SDS011;2117;47.972;7.830;2023-05-07T02:19:35;3.70;;;2.80;;
4206;SDS011;2117;47.972;7.830;2023-05-07T02:22:00;4.70;;;3.13;;
4206;SDS011;2117;47.972;7.830;2023-05-07T02:24:26;6.47;;;2.97;;
4206;SDS011;2117;47.972;7.830;2023-05-07T02:26:51;8.90;;;3.47;;
4206;SDS011;2117;47.972;7.830;2023-05-07T02:29:17;10.10;;;3.47;;
4206;SDS011;2117;47.972;7.830;2023-05-07T02:31:43;3.13;;;2.83;;
4206;SDS011;2117;47.972;7.830;2023-05-07T02:34:08;4.00;;;2.87;;
4206;SDS011;2117;47.972;7.830;2023-05-07T02:36:34;6.70;;;2.97;;
4206;SDS011;2117;47.972;7.830;2023-05-07T02:39:00;4.40;;;3.40;;
4206;SDS011;2117;47.972;7.830;2023-05-07T02:41:25;5.43;;;2.50;;
4206;SDS011;2117;47.972;7.830;2023-05-07T02:43:53;8.07;;;3.00;;
4206;SDS011;2117;47.972;7.830;2023-05-07T02:46:18;7.10;;;3.03;;
4206;SDS011;2117;47.972;7.830;2023-05-07T02:48:44;5.63;;;3.07;;
4206;SDS011;2117;47.972;7.830;2023-05-07T02:51:09;4.30;;;2.90;;
4206;SDS011;2117;47.972;7.830;2023-05-07T02:53:35;18.43;;;3.90;;
4206;SDS011;2117;47.972;7.830;2023-05-07T02:56:01;8.10;;;3.47;;
4206;SDS011;2117;47.972;7.830;2023-05-07T02:58:27;6.53;;;3.13;;
4206;SDS011;2117;47.972;7.830;2023-05-07T03:00:53;7.00;;;3.10;;
4206;SDS011;2117;47.972;7.830;2023-05-07T03:03:19;5.80;;;3.17;;
4206;SDS011;2117;47.972;7.830;2023-05-07T03:05:45;9.73;;;3.53;;
4206;SDS011;2117;47.972;7.830;2023-05-07T03:08:11;5.20;;;3.67;;
4206;SDS011;2117;47.972;7.830;2023-05-07T03:10:38;4.40;;;3.37;;
4206;SDS011;2117;47.972;7.830;2023-05-07T03:13:03;5.40;;;2.90;;
4206;SDS011;2117;47.972;7.830;2023-05-07T03:15:29;6.17;;;4.10;;
4206;SDS011;2117;47.972;7.830;2023-05-07T03:17:55;6.27;;;3.10;;
4206;SDS011;2117;47.972;7.830;2023-05-07T03:20:21;10.03;;;2.83;;
4206;SDS011;2117;47.972;7.830;2023-05-07T03:22:46;13.40;;;4.60;;
4206;SDS011;2117;47.972;7.830;2023-05-07T03:25:12;5.13;;;2.97;;
4206;SDS011;2117;47.972;7.830;2023-05-07T03:27:39;3.83;;;2.97;;
4206;SDS011;2117;47.972;7.830;2023-05-07T03:30:04;5.03;;;3.53;;
4206;SDS011;2117;47.972;7.830;2023-05-07T03:32:31;3.80;;;3.03;;
4206;SDS011;2117;47.972;7.830;2023-05-07T03:34:57;4.83;;;2.80;;
4206;SDS011;2117;47.972;7.830;2023-05-07T03:37:22;6.40;;;3.17;;
4206;SDS011;2117;47.972;7.830;2023-05-07T03:39:48;4.23;;;3.30;;
4206;SDS011;2117;47.972;7.830;2023-05-07T03:42:14;4.93;;;3.37;;
4206;SDS011;2117;47.972;7.830;2023-05-07T03:44:40;4.10;;;2.93;;
4206;SDS011;2117;47.972;7.830;2023-05-07T03:47:05;5.20;;;2.80;;
4206;SDS011;2117;47.972;7.830;2023-05-07T03:49:31;5.00;;;2.50;;
4206;SDS011;2117;47.972;7.830;2023-05-07T03:51:57;5.20;;;4.10;;
4206;SDS011;2117;47.972;7.830;2023-05-07T03:54:22;4.40;;;3.03;;
4206;SDS011;2117;47.972;7.830;2023-05-07T03:56:48;4.70;;;3.67;;
4206;SDS011;2117;47.972;7.830;2023-05-07T03:59:13;8.37;;;3.37;;
4206;SDS011;2117;47.972;7.830;2023-05-07T04:01:39;13.50;;;3.33;;
4206;SDS011;2117;47.972;7.830;2023-05-07T04:04:04;5.57;;;3.43;;
4206;SDS011;2117;47.972;7.830;2023-05-07T04:06:30;6.07;;;3.27;;
4206;SDS011;2117;47.972;7.830;2023-05-07T04:08:56;5.73;;;3.30;;
4206;SDS011;2117;47.972;7.830;2023-05-07T04:11:22;9.83;;;3.03;;
4206;SDS011;2117;47.972;7.830;2023-05-07T04:13:47;4.73;;;3.33;;
4206;SDS011;2117;47.972;7.830;2023-05-07T04:16:13;7.57;;;3.10;;
4206;SDS011;2117;47.972;7.830;2023-05-07T04:18:39;5.30;;;3.40;;
4206;SDS011;2117;47.972;7.830;2023-05-07T04:21:05;4.77;;;2.93;;
4206;SDS011;2117;47.972;7.830;2023-05-07T04:23:30;5.30;;;3.10;;
4206;SDS011;2117;47.972;7.830;2023-05-07T04:25:56;4.83;;;2.87;;
4206;SDS011;2117;47.972;7.830;2023-05-07T04:28:22;4.10;;;3.10;;
4206;SDS011;2117;47.972;7.830;2023-05-07T04:30:48;4.10;;;3.30;;
4206;SDS011;2117;47.972;7.830;2023-05-07T04:33:14;5.23;;;3.57;;
4206;SDS011;2117;47.972;7.830;2023-05-07T04:35:41;4.43;;;3.30;;
4206;SDS011;2117;47.972;7.830;2023-05-07T04:38:07;5.27;;;3.67;;
4206;SDS011;2117;47.972;7.830;2023-05-07T04:40:33;7.27;;;3.50;;
4206;SDS011;2117;47.972;7.830;2023-05-07T04:43:00;5.30;;;4.03;;
4206;SDS011;2117;47.972;7.830;2023-05-07T04:45:26;4.13;;;3.20;;
4206;SDS011;2117;47.972;7.830;2023-05-07T04:47:52;7.10;;;3.37;;
4206;SDS011;2117;47.972;7.830;2023-05-07T04:50:17;6.70;;;3.40;;
4206;SDS011;2117;47.972;7.830;2023-05-07T04:52:44;5.53;;;3.40;;
4206;SDS011;2117;47.972;7.830;2023-05-07T04:55:10;4.53;;;3.20;;
4206;SDS011;2117;47.972;7.830;2023-05-07T04:57:36;4.03;;;3.23;;
4206;SDS011;2117;47.972;7.830;2023-05-07T05:00:03;7.97;;;3.13;;
4206;SDS011;2117;47.972;7.830;2023-05-07T05:02:29;5.40;;;3.83;;
4206;SDS011;2117;47.972;7.830;2023-05-07T05:04:54;5.03;;;4.00;;
4206;SDS011;2117;47.972;7.830;2023-05-07T05:07:20;5.07;;;3.80;;
4206;SDS011;2117;47.972;7.830;2023-05-07T05:09:46;10.20;;;3.37;;
4206;SDS011;2117;47.972;7.830;2023-05-07T05:12:12;5.93;;;3.30;;
4206;SDS011;2117;47.972;7.830;2023-05-07T05:14:37;5.17;;;3.47;;
4206;SDS011;2117;47.972;7.830;2023-05-07T05:17:03;7.00;;;3.47;;
4206;SDS011;2117;47.972;7.830;2023-05-07T05:19:28;8.30;;;4.43;;
4206;SDS011;2117;47.972;7.830;2023-05-07T05:21:54;4.50;;;3.80;;
4206;SDS011;2117;47.972;7.830;2023-05-07T05:24:20;4.63;;;4.10;;
4206;SDS011;2117;47.972;7.830;2023-05-07T05:26:45;3.53;;;2.93;;
4206;SDS011;2117;47.972;7.830;2023-05-07T05:29:11;3.00;;;2.70;;
4206;SDS011;2117;47.972;7.830;2023-05-07T05:31:36;5.67;;;3.43;;
4206;SDS011;2117;47.972;7.830;2023-05-07T05:34:02;6.63;;;3.03;;
4206;SDS011;2117;47.972;7.830;2023-05-07T05:36:28;6.87;;;3.70;;
4206;SDS011;2117;47.972;7.830;2023-05-07T05:38:55;4.10;;;3.00;;
4206;SDS011;2117;47.972;7.830;2023-05-07T05:41:20;3.40;;;2.90;;
4206;SDS011;2117;47.972;7.830;2023-05-07T05:43:46;6.10;;;3.20;;
4206;SDS011;2117;47.972;7.830;2023-05-07T05:46:12;5.83;;;4.03;;
4206;SDS011;2117;47.972;7.830;2023-05-07T05:48:37;7.83;;;3.60;;
4206;SDS011;2117;47.972;7.830;2023-05-07T05:51:03;5.90;;;3.53;;
4206;SDS011;2117;47.972;7.830;2023-05-07T05:53:28;3.83;;;3.03;;
4206;SDS011;2117;47.972;7.830;2023-05-07T05:55:54;6.60;;;4.40;;
4206;SDS011;2117;47.972;7.830;2023-05-07T05:58:19;3.73;;;3.43;;
4206;SDS011;2117;47.972;7.830;2023-05-07T06:00:46;3.77;;;3.33;;
4206;SDS011;2117;47.972;7.830;2023-05-07T06:03:13;5.17;;;3.87;;
4206;SDS011;2117;47.972;7.830;2023-05-07T06:05:38;8.70;;;4.20;;
4206;SDS011;2117;47.972;7.830;2023-05-07T06:08:04;6.40;;;3.60;;
4206;SDS011;2117;47.972;7.830;2023-05-07T06:10:30;8.43;;;4.40;;
4206;SDS011;2117;47.972;7.830;2023-05-07T06:12:55;6.37;;;4.10;;
4206;SDS011;2117;47.972;7.830;2023-05-07T06:15:21;7.00;;;4.37;;
4206;SDS011;2117;47.972;7.830;2023-05-07T06:17:47;4.70;;;3.70;;
4206;SDS011;2117;47.972;7.830;2023-05-07T06:20:13;8.57;;;4.20;;
4206;SDS011;2117;47.972;7.830;2023-05-07T06:22:39;4.27;;;3.87;;
4206;SDS011;2117;47.972;7.830;2023-05-07T06:25:05;6.10;;;4.00;;
4206;SDS011;2117;47.972;7.830;2023-05-07T06:27:31;6.23;;;4.17;;
4206;SDS011;2117;47.972;7.830;2023-05-07T06:29:56;5.50;;;4.27;;
4206;SDS011;2117;47.972;7.830;2023-05-07T06:32:22;5.60;;;4.23;;
4206;SDS011;2117;47.972;7.830;2023-05-07T06:34:47;5.53;;;3.63;;
4206;SDS011;2117;47.972;7.830;2023-05-07T06:37:13;5.20;;;3.80;;
4206;SDS011;2117;47.972;7.830;2023-05-07T06:39:38;5.80;;;4.70;;
4206;SDS011;2117;47.972;7.830;2023-05-07T06:42:04;6.50;;;4.70;;
4206;SDS011;2117;47.972;7.830;2023-05-07T06:44:30;8.00;;;5.27;;
4206;SDS011;2117;47.972;7.830;2023-05-07T06:46:56;9.50;;;5.30;;
4206;SDS011;2117;47.972;7.830;2023-05-07T06:49:22;8.53;;;5.40;;
4206;SDS011;2117;47.972;7.830;2023-05-07T06:51:47;5.30;;;4.80;;
4206;SDS011;2117;47.972;7.830;2023-05-07T06:54:13;5.03;;;4.53;;
4206;SDS011;2117;47.972;7.830;2023-05-07T06:56:38;10.00;;;4.83;;
4206;SDS011;2117;47.972;7.830;2023-05-07T06:59:04;7.03;;;5.37;;
4206;SDS011;2117;47.972;7.830;2023-05-07T07:01:31;7.30;;;4.60;;
4206;SDS011;2117;47.972;7.830;2023-05-07T07:03:56;8.33;;;5.20;;
4206;SDS011;2117;47.972;7.830;2023-05-07T07:06:22;5.50;;;4.27;;
4206;SDS011;2117;47.972;7.830;2023-05-07T07:08:47;6.47;;;5.03;;
4206;SDS011;2117;47.972;7.830;2023-05-07T07:11:13;6.23;;;4.10;;
4206;SDS011;2117;47.972;7.830;2023-05-07T07:13:38;4.93;;;4.43;;
4206;SDS011;2117;47.972;7.830;2023-05-07T07:16:05;7.23;;;4.20;;
4206;SDS011;2117;47.972;7.830;2023-05-07T07:18:31;7.40;;;4.63;;
4206;SDS011;2117;47.972;7.830;2023-05-07T07:20:56;6.50;;;5.30;;
4206;SDS011;2117;47.972;7.830;2023-05-07T07:23:22;6.80;;;4.67;;
4206;SDS011;2117;47.972;7.830;2023-05-07T07:25:47;5.97;;;5.03;;
4206;SDS011;2117;47.972;7.830;2023-05-07T07:28:13;6.23;;;4.30;;
4206;SDS011;2117;47.972;7.830;2023-05-07T07:30:39;10.13;;;4.67;;
4206;SDS011;2117;47.972;7.830;2023-05-07T07:33:04;4.63;;;3.70;;
4206;SDS011;2117;47.972;7.830;2023-05-07T07:35:30;7.40;;;4.80;;
4206;SDS011;2117;47.972;7.830;2023-05-07T07:37:59;6.20;;;4.63;;
4206;SDS011;2117;47.972;7.830;2023-05-07T07:40:25;7.27;;;4.93;;
4206;SDS011;2117;47.972;7.830;2023-05-07T07:42:51;6.13;;;4.53;;
4206;SDS011;2117;47.972;7.830;2023-05-07T07:45:16;5.10;;;4.43;;
4206;SDS011;2117;47.972;7.830;2023-05-07T07:47:42;4.70;;;4.17;;
4206;SDS011;2117;47.972;7.830;2023-05-07T07:50:08;11.00;;;5.20;;
4206;SDS011;2117;47.972;7.830;2023-05-07T07:52:34;6.83;;;4.43;;
4206;SDS011;2117;47.972;7.830;2023-05-07T07:55:00;10.20;;;4.57;;
4206;SDS011;2117;47.972;7.830;2023-05-07T07:57:25;7.00;;;5.03;;
4206;SDS011;2117;47.972;7.830;2023-05-07T07:59:51;6.17;;;4.93;;
4206;SDS011;2117;47.972;7.830;2023-05-07T08:02:17;8.53;;;4.87;;
4206;SDS011;2117;47.972;7.830;2023-05-07T08:04:43;5.30;;;4.63;;
4206;SDS011;2117;47.972;7.830;2023-05-07T08:07:09;7.77;;;4.17;;
4206;SDS011;2117;47.972;7.830;2023-05-07T08:09:35;7.70;;;5.10;;
4206;SDS011;2117;47.972;7.830;2023-05-07T08:12:01;6.10;;;4.80;;
4206;SDS011;2117;47.972;7.830;2023-05-07T08:14:27;10.63;;;5.80;;
4206;SDS011;2117;47.972;7.830;2023-05-07T08:16:53;7.83;;;4.90;;
4206;SDS011;2117;47.972;7.830;2023-05-07T08:19:19;5.67;;;5.10;;
4206;SDS011;2117;47.972;7.830;2023-05-07T08:21:45;6.53;;;4.40;;
4206;SDS011;2117;47.972;7.830;2023-05-07T08:24:12;5.70;;;4.10;;
4206;SDS011;2117;47.972;7.830;2023-05-07T08:26:38;5.80;;;4.80;;
4206;SDS011;2117;47.972;7.830;2023-05-07T08:29:04;6.73;;;4.70;;
4206;SDS011;2117;47.972;7.830;2023-05-07T08:31:30;5.40;;;4.40;;
4206;SDS011;2117;47.972;7.830;2023-05-07T08:33:57;5.20;;;4.50;;
4206;SDS011;2117;47.972;7.830;2023-05-07T08:36:23;6.17;;;4.77;;
4206;SDS011;2117;47.972;7.830;2023-05-07T08:38:48;5.93;;;4.40;;
4206;SDS011;2117;47.972;7.830;2023-05-07T08:41:14;6.40;;;4.37;;
4206;SDS011;2117;47.972;7.830;2023-05-07T08:43:40;6.13;;;4.97;;
4206;SDS011;2117;47.972;7.830;2023-05-07T08:46:06;5.50;;;3.90;;
4206;SDS011;2117;47.972;7.830;2023-05-07T08:48:34;5.50;;;4.37;;
4206;SDS011;2117;47.972;7.830;2023-05-07T08:51:00;6.27;;;4.37;;
4206;SDS011;2117;47.972;7.830;2023-05-07T08:53:26;8.60;;;4.60;;
4206;SDS011;2117;47.972;7.830;2023-05-07T08:55:52;7.43;;;4.37;;
4206;SDS011;2117;47.972;7.830;2023-05-07T08:58:18;5.80;;;4.50;;
4206;SDS011;2117;47.972;7.830;2023-05-07T09:00:44;6.90;;;5.00;;
4206;SDS011;2117;47.972;7.830;2023-05-07T09:03:10;6.40;;;5.03;;
4206;SDS011;2117;47.972;7.830;2023-05-07T09:05:39;8.00;;;5.20;;
4206;SDS011;2117;47.972;7.830;2023-05-07T09:08:05;5.40;;;3.83;;
4206;SDS011;2117;47.972;7.830;2023-05-07T09:10:33;8.27;;;5.90;;
4206;SDS011;2117;47.972;7.830;2023-05-07T09:12:59;6.80;;;5.73;;
4206;SDS011;2117;47.972;7.830;2023-05-07T09:15:26;8.37;;;5.80;;
4206;SDS011;2117;47.972;7.830;2023-05-07T09:17:53;9.20;;;5.70;;
4206;SDS011;2117;47.972;7.830;2023-05-07T09:20:18;6.40;;;5.57;;
4206;SDS011;2117;47.972;7.830;2023-05-07T09:22:44;6.90;;;5.30;;
4206;SDS011;2117;47.972;7.830;2023-05-07T09:25:10;5.37;;;4.60;;
4206;SDS011;2117;47.972;7.830;2023-05-07T09:27:36;12.13;;;5.23;;
4206;SDS011;2117;47.972;7.830;2023-05-07T09:30:05;8.60;;;4.47;;
4206;SDS011;2117;47.972;7.830;2023-05-07T09:32:34;8.17;;;4.33;;
4206;SDS011;2117;47.972;7.830;2023-05-07T09:35:00;4.57;;;4.07;;
4206;SDS011;2117;47.972;7.830;2023-05-07T09:37:28;7.70;;;5.00;;
4206;SDS011;2117;47.972;7.830;2023-05-07T09:39:56;6.30;;;4.50;;
4206;SDS011;2117;47.972;7.830;2023-05-07T09:42:24;6.53;;;4.90;;
4206;SDS011;2117;47.972;7.830;2023-05-07T09:44:51;4.97;;;3.83;;
4206;SDS011;2117;47.972;7.830;2023-05-07T09:47:20;9.40;;;4.70;;
4206;SDS011;2117;47.972;7.830;2023-05-07T09:49:49;5.17;;;4.60;;
4206;SDS011;2117;47.972;7.830;2023-05-07T09:52:17;8.97;;;4.87;;
4206;SDS011;2117;47.972;7.830;2023-05-07T09:54:43;4.97;;;4.47;;
4206;SDS011;2117;47.972;7.830;2023-05-07T09:57:12;7.47;;;4.80;;
4206;SDS011;2117;47.972;7.830;2023-05-07T09:59:38;5.53;;;4.53;;
4206;SDS011;2117;47.972;7.830;2023-05-07T10:02:07;8.13;;;4.50;;
4206;SDS011;2117;47.972;7.830;2023-05-07T10:04:35;7.60;;;6.20;;
4206;SDS011;2117;47.972;7.830;2023-05-07T10:07:01;9.13;;;4.93;;
4206;SDS011;2117;47.972;7.830;2023-05-07T10:09:28;7.93;;;5.30;;
4206;SDS011;2117;47.972;7.830;2023-05-07T10:11:55;9.23;;;5.40;;
4206;SDS011;2117;47.972;7.830;2023-05-07T10:14:22;5.27;;;4.50;;
4206;SDS011;2117;47.972;7.830;2023-05-07T10:16:48;6.03;;;4.77;;
4206;SDS011;2117;47.972;7.830;2023-05-07T10:19:14;7.87;;;5.30;;
4206;SDS011;2117;47.972;7.830;2023-05-07T10:21:44;6.80;;;5.23;;
4206;SDS011;2117;47.972;7.830;2023-05-07T10:24:21;6.80;;;5.03;;
4206;SDS011;2117;47.972;7.830;2023-05-07T10:26:52;7.83;;;5.27;;
4206;SDS011;2117;47.972;7.830;2023-05-07T10:29:21;7.93;;;5.10;;
4206;SDS011;2117;47.972;7.830;2023-05-07T10:34:45;9.60;;;6.80;;
4206;SDS011;2117;47.972;7.830;2023-05-07T10:37:13;7.60;;;6.23;;
4206;SDS011;2117;47.972;7.830;2023-05-07T10:39:40;7.70;;;6.00;;
4206;SDS011;2117;47.972;7.830;2023-05-07T10:42:10;8.33;;;6.13;;
4206;SDS011;2117;47.972;7.830;2023-05-07T10:44:36;7.53;;;6.33;;
4206;SDS011;2117;47.972;7.830;2023-05-07T10:47:05;7.87;;;6.20;;
4206;SDS011;2117;47.972;7.830;2023-05-07T10:50:20;10.33;;;7.20;;
4206;SDS011;2117;47.972;7.830;2023-05-07T10:52:23;7.57;;;6.20;;
4206;SDS011;2117;47.972;7.830;2023-05-07T10:57:46;8.13;;;6.17;;
4206;SDS011;2117;47.972;7.830;2023-05-07T11:05:25;7.17;;;5.60;;
4206;SDS011;2117;47.972;7.830;2023-05-07T11:07:55;5.73;;;5.10;;
4206;SDS011;2117;47.972;7.830;2023-05-07T11:10:21;5.37;;;4.57;;
4206;SDS011;2117;47.972;7.830;2023-05-07T11:12:48;9.70;;;5.30;;
4206;SDS011;2117;47.972;7.830;2023-05-07T11:15:15;9.97;;;6.23;;
4206;SDS011;2117;47.972;7.830;2023-05-07T11:17:58;6.70;;;5.43;;
4206;SDS011;2117;47.972;7.830;2023-05-07T11:20:44;7.77;;;5.20;;
4206;SDS011;2117;47.972;7.830;2023-05-07T11:26:02;7.23;;;5.53;;
4206;SDS011;2117;47.972;7.830;2023-05-07T11:28:29;4.53;;;4.13;;
4206;SDS011;2117;47.972;7.830;2023-05-07T11:30:56;6.20;;;4.73;;
4206;SDS011;2117;47.972;7.830;2023-05-07T11:33:22;5.53;;;4.60;;
4206;SDS011;2117;47.972;7.830;2023-05-07T11:35:50;5.53;;;4.20;;
4206;SDS011;2117;47.972;7.830;2023-05-07T11:38:18;6.53;;;4.87;;
4206;SDS011;2117;47.972;7.830;2023-05-07T11:40:53;5.03;;;4.37;;
4206;SDS011;2117;47.972;7.830;2023-05-07T11:43:25;6.93;;;4.33;;
4206;SDS011;2117;47.972;7.830;2023-05-07T11:45:51;5.87;;;4.37;;
4206;SDS011;2117;47.972;7.830;2023-05-07T11:48:17;4.50;;;3.93;;
4206;SDS011;2117;47.972;7.830;2023-05-07T11:50:52;4.70;;;4.10;;
4206;SDS011;2117;47.972;7.830;2023-05-07T11:53:20;7.60;;;5.10;;
4206;SDS011;2117;47.972;7.830;2023-05-07T11:55:51;6.40;;;4.50;;
4206;SDS011;2117;47.972;7.830;2023-05-07T11:58:20;7.93;;;4.70;;
4206;SDS011;2117;47.972;7.830;2023-05-07T12:00:48;4.90;;;4.40;;
4206;SDS011;2117;47.972;7.830;2023-05-07T12:03:14;6.40;;;4.70;;
4206;SDS011;2117;47.972;7.830;2023-05-07T12:05:40;7.13;;;4.77;;
4206;SDS011;2117;47.972;7.830;2023-05-07T12:08:06;6.30;;;4.87;;
4206;SDS011;2117;47.972;7.830;2023-05-07T12:10:32;6.87;;;4.80;;
4206;SDS011;2117;47.972;7.830;2023-05-07T12:12:58;9.03;;;4.77;;
4206;SDS011;2117;47.972;7.830;2023-05-07T12:15:23;7.63;;;5.50;;
4206;SDS011;2117;47.972;7.830;2023-05-07T12:17:49;7.37;;;5.57;;
4206;SDS011;2117;47.972;7.830;2023-05-07T12:20:15;5.73;;;5.13;;
4206;SDS011;2117;47.972;7.830;2023-05-07T12:22:41;6.47;;;4.90;;
4206;SDS011;2117;47.972;7.830;2023-05-07T12:25:07;4.93;;;3.93;;
4206;SDS011;2117;47.972;7.830;2023-05-07T12:27:36;5.17;;;4.10;;
4206;SDS011;2117;47.972;7.830;2023-05-07T12:30:03;4.90;;;4.40;;
4206;SDS011;2117;47.972;7.830;2023-05-07T12:32:28;8.00;;;4.23;;
4206;SDS011;2117;47.972;7.830;2023-05-07T12:34:54;4.70;;;4.20;;
4206;SDS011;2117;47.972;7.830;2023-05-07T12:37:23;5.77;;;4.80;;
4206;SDS011;2117;47.972;7.830;2023-05-07T12:40:03;5.60;;;4.47;;
4206;SDS011;2117;47.972;7.830;2023-05-07T12:42:32;8.03;;;4.27;;
4206;SDS011;2117;47.972;7.830;2023-05-07T12:45:00;6.50;;;4.90;;
4206;SDS011;2117;47.972;7.830;2023-05-07T12:47:33;7.10;;;5.43;;
4206;SDS011;2117;47.972;7.830;2023-05-07T12:49:59;7.93;;;5.50;;
4206;SDS011;2117;47.972;7.830;2023-05-07T12:52:24;6.50;;;5.20;;
4206;SDS011;2117;47.972;7.830;2023-05-07T12:54:50;5.50;;;4.17;;
4206;SDS011;2117;47.972;7.830;2023-05-07T12:57:16;5.53;;;4.80;;
4206;SDS011;2117;47.972;7.830;2023-05-07T12:59:45;5.57;;;4.23;;
4206;SDS011;2117;47.972;7.830;2023-05-07T13:02:11;5.13;;;4.30;;
4206;SDS011;2117;47.972;7.830;2023-05-07T13:04:36;5.77;;;4.40;;
4206;SDS011;2117;47.972;7.830;2023-05-07T13:07:02;4.73;;;4.23;;
4206;SDS011;2117;47.972;7.830;2023-05-07T13:09:28;9.80;;;4.77;;
4206;SDS011;2117;47.972;7.830;2023-05-07T13:11:54;5.73;;;4.00;;
4206;SDS011;2117;47.972;7.830;2023-05-07T13:14:20;6.53;;;4.00;;
4206;SDS011;2117;47.972;7.830;2023-05-07T13:16:46;6.10;;;4.37;;
4206;SDS011;2117;47.972;7.830;2023-05-07T13:19:14;5.80;;;4.60;;
4206;SDS011;2117;47.972;7.830;2023-05-07T13:21:40;6.00;;;4.40;;
4206;SDS011;2117;47.972;7.830;2023-05-07T13:24:06;6.13;;;4.40;;
4206;SDS011;2117;47.972;7.830;2023-05-07T13:26:31;8.40;;;4.90;;
4206;SDS011;2117;47.972;7.830;2023-05-07T13:28:57;7.67;;;4.70;;
4206;SDS011;2117;47.972;7.830;2023-05-07T13:31:23;6.30;;;5.07;;
4206;SDS011;2117;47.972;7.830;2023-05-07T13:33:49;5.80;;;4.73;;
4206;SDS011;2117;47.972;7.830;2023-05-07T13:36:15;6.00;;;5.10;;
4206;SDS011;2117;47.972;7.830;2023-05-07T13:38:40;9.20;;;5.00;;
4206;SDS011;2117;47.972;7.830;2023-05-07T13:41:06;6.23;;;5.20;;
4206;SDS011;2117;47.972;7.830;2023-05-07T13:43:31;8.13;;;4.87;;
4206;SDS011;2117;47.972;7.830;2023-05-07T13:45:58;6.30;;;5.27;;
4206;SDS011;2117;47.972;7.830;2023-05-07T13:48:24;12.33;;;5.53;;
4206;SDS011;2117;47.972;7.830;2023-05-07T13:50:50;7.77;;;5.17;;
4206;SDS011;2117;47.972;7.830;2023-05-07T13:53:16;6.23;;;5.63;;
4206;SDS011;2117;47.972;7.830;2023-05-07T13:55:43;8.20;;;5.33;;
4206;SDS011;2117;47.972;7.830;2023-05-07T13:58:09;6.77;;;6.07;;
4206;SDS011;2117;47.972;7.830;2023-05-07T14:00:35;7.20;;;6.10;;
4206;SDS011;2117;47.972;7.830;2023-05-07T14:03:00;7.10;;;5.67;;
4206;SDS011;2117;47.972;7.830;2023-05-07T14:05:26;6.80;;;4.90;;
4206;SDS011;2117;47.972;7.830;2023-05-07T14:07:53;8.27;;;5.90;;
4206;SDS011;2117;47.972;7.830;2023-05-07T14:10:29;5.97;;;5.17;;
4206;SDS011;2117;47.972;7.830;2023-05-07T14:12:55;7.67;;;5.00;;
4206;SDS011;2117;47.972;7.830;2023-05-07T14:15:20;5.73;;;5.13;;
4206;SDS011;2117;47.972;7.830;2023-05-07T14:17:46;6.30;;;4.97;;
4206;SDS011;2117;47.972;7.830;2023-05-07T14:20:12;4.70;;;3.97;;
4206;SDS011;2117;47.972;7.830;2023-05-07T14:22:38;4.33;;;3.90;;
4206;SDS011;2117;47.972;7.830;2023-05-07T14:25:03;8.93;;;4.30;;
4206;SDS011;2117;47.972;7.830;2023-05-07T14:27:29;6.63;;;4.17;;
4206;SDS011;2117;47.972;7.830;2023-05-07T14:29:55;6.63;;;4.50;;
4206;SDS011;2117;47.972;7.830;2023-05-07T14:32:21;8.40;;;4.83;;
4206;SDS011;2117;47.972;7.830;2023-05-07T14:34:46;5.10;;;4.40;;
4206;SDS011;2117;47.972;7.830;2023-05-07T14:37:12;6.10;;;4.27;;
4206;SDS011;2117;47.972;7.830;2023-05-07T14:39:38;5.77;;;4.03;;
4206;SDS011;2117;47.972;7.830;2023-05-07T14:42:04;8.23;;;4.00;;
4206;SDS011;2117;47.972;7.830;2023-05-07T14:44:30;5.70;;;3.57;;
4206;SDS011;2117;47.972;7.830;2023-05-07T14:46:56;5.67;;;4.13;;
4206;SDS011;2117;47.972;7.830;2023-05-07T14:49:21;6.47;;;4.40;;
4206;SDS011;2117;47.972;7.830;2023-05-07T14:51:47;5.60;;;4.40;;
4206;SDS011;2117;47.972;7.830;2023-05-07T14:54:13;6.20;;;4.53;;
4206;SDS011;2117;47.972;7.830;2023-05-07T14:56:39;5.60;;;3.33;;
4206;SDS011;2117;47.972;7.830;2023-05-07T14:59:05;2.70;;;2.40;;
4206;SDS011;2117;47.972;7.830;2023-05-07T15:01:31;2.97;;;2.63;;
4206;SDS011;2117;47.972;7.830;2023-05-07T15:03:57;7.80;;;3.10;;
4206;SDS011;2117;47.972;7.830;2023-05-07T15:06:22;3.77;;;2.20;;
4206;SDS011;2117;47.972;7.830;2023-05-07T15:08:48;3.83;;;2.10;;
4206;SDS011;2117;47.972;7.830;2023-05-07T15:11:14;2.73;;;1.70;;
4206;SDS011;2117;47.972;7.830;2023-05-07T15:13:41;2.67;;;1.77;;
4206;SDS011;2117;47.972;7.830;2023-05-07T15:16:07;3.13;;;2.13;;
4206;SDS011;2117;47.972;7.830;2023-05-07T15:18:32;3.50;;;2.00;;
4206;SDS011;2117;47.972;7.830;2023-05-07T15:20:58;2.90;;;1.90;;
4206;SDS011;2117;47.972;7.830;2023-05-07T15:23:24;3.57;;;2.00;;